createdAt,value
2023-05-13T00:01:41.702Z,9.25
2023-05-13T00:04:09.725Z,9.00
2023-05-13T00:06:37.773Z,8.75
2023-05-13T00:09:05.783Z,9.00
2023-05-13T00:11:35.455Z,8.50
2023-05-13T00:14:03.881Z,9.00
2023-05-13T00:16:31.871Z,10.00
2023-05-13T00:19:00.168Z,9.00
2023-05-13T00:21:28.131Z,9.25
2023-05-13T00:23:56.071Z,9.25
2023-05-13T00:26:24.043Z,8.25
2023-05-13T00:28:53.634Z,9.25
2023-05-13T00:31:21.671Z,10.25
2023-05-13T00:33:49.689Z,9.00
2023-05-13T00:36:17.614Z,9.75
2023-05-13T00:38:45.787Z,9.25
2023-05-13T00:41:13.755Z,8.75
2023-05-13T00:43:41.683Z,9.75
2023-05-13T00:46:11.036Z,9.25
2023-05-13T00:48:39.545Z,10.00
2023-05-13T00:51:07.541Z,10.50
2023-05-13T00:53:35.484Z,10.00
2023-05-13T00:56:03.410Z,10.00
2023-05-13T00:58:31.609Z,10.00
2023-05-13T01:01:05.678Z,9.25
2023-05-13T01:03:39.217Z,10.50
2023-05-13T01:06:10.639Z,10.00
2023-05-13T01:08:41.038Z,10.75
2023-05-13T01:11:10.758Z,10.00
2023-05-13T01:13:43.192Z,11.50
2023-05-13T01:16:14.157Z,9.00
2023-05-13T01:18:46.033Z,9.75
2023-05-13T01:21:14.035Z,10.75
2023-05-13T01:23:43.354Z,11.00
2023-05-13T01:26:11.260Z,11.00
2023-05-13T01:28:39.491Z,9.50
2023-05-13T01:31:10.825Z,10.25
2023-05-13T01:33:38.931Z,10.75
2023-05-13T01:36:07.475Z,10.00
2023-05-13T01:38:35.594Z,10.00
2023-05-13T01:41:05.033Z,10.00
2023-05-13T01:43:32.963Z,11.00
2023-05-13T01:46:02.195Z,9.50
2023-05-13T01:48:30.401Z,10.00
2023-05-13T01:50:58.334Z,11.00
2023-05-13T01:53:26.898Z,9.50
2023-05-13T01:55:54.823Z,10.00
2023-05-13T01:58:24.370Z,10.00
2023-05-13T02:00:52.332Z,10.25
2023-05-13T02:03:20.350Z,10.25
2023-05-13T02:05:48.602Z,10.00
2023-05-13T02:08:16.733Z,9.75
2023-05-13T02:10:44.667Z,11.50
2023-05-13T02:13:12.628Z,9.50
2023-05-13T02:15:41.919Z,9.00
2023-05-13T02:18:10.127Z,10.00
2023-05-13T02:20:38.074Z,10.75
2023-05-13T02:23:06.006Z,11.00
2023-05-13T02:25:33.940Z,10.00
2023-05-13T02:28:02.211Z,11.50
2023-05-13T02:30:30.160Z,10.00
2023-05-13T02:32:59.475Z,10.75
2023-05-13T02:35:29.755Z,11.25
2023-05-13T02:37:59.095Z,11.00
2023-05-13T02:40:26.986Z,10.00
2023-05-13T02:42:55.032Z,9.75
2023-05-13T02:45:22.939Z,12.00
2023-05-13T02:47:51.199Z,10.00
2023-05-13T02:50:20.814Z,11.00
2023-05-13T02:52:48.841Z,9.00
2023-05-13T02:55:16.728Z,10.75
2023-05-13T02:57:44.644Z,9.25
2023-05-13T03:00:13.679Z,10.00
2023-05-13T03:02:41.667Z,9.00
2023-05-13T03:05:10.148Z,10.75
2023-05-13T03:07:39.466Z,10.00
2023-05-13T03:10:08.651Z,10.50
2023-05-13T03:12:36.527Z,9.75
2023-05-13T03:15:04.537Z,10.50
2023-05-13T03:17:33.444Z,11.25
2023-05-13T03:20:02.794Z,9.75
2023-05-13T03:22:30.675Z,11.00
2023-05-13T03:25:00.009Z,11.00
2023-05-13T03:27:27.903Z,10.00
2023-05-13T03:29:56.093Z,10.75
2023-05-13T03:32:25.354Z,11.00
2023-05-13T03:34:53.603Z,11.50
2023-05-13T03:37:21.494Z,9.75
2023-05-13T03:39:49.658Z,10.75
2023-05-13T03:42:19.017Z,11.00
2023-05-13T03:44:46.972Z,9.75
2023-05-13T03:47:14.859Z,10.75
2023-05-13T03:49:43.067Z,10.00
2023-05-13T03:52:10.991Z,11.00
2023-05-13T03:54:38.859Z,9.50
2023-05-13T03:57:07.179Z,10.00
2023-05-13T03:59:36.741Z,12.00
2023-05-13T04:02:04.756Z,10.75
2023-05-13T04:04:32.720Z,9.75
2023-05-13T04:07:00.663Z,10.50
2023-05-13T04:09:28.836Z,10.00
2023-05-13T04:11:56.772Z,10.75
2023-05-13T04:14:24.694Z,10.75
2023-05-13T04:16:54.026Z,11.00
2023-05-13T04:19:22.266Z,10.75
2023-05-13T04:21:50.159Z,11.50
2023-05-13T04:24:18.031Z,11.00
2023-05-13T04:26:46.037Z,11.00
2023-05-13T04:29:14.823Z,11.00
2023-05-13T04:31:42.742Z,10.25
2023-05-13T04:34:12.049Z,11.00
2023-05-13T04:36:39.903Z,10.00
2023-05-13T04:39:08.079Z,10.75
2023-05-13T04:41:36.003Z,9.75
2023-05-13T04:44:06.207Z,10.00
2023-05-13T04:46:34.207Z,10.75
2023-05-13T04:49:02.540Z,11.75
2023-05-13T04:51:32.536Z,10.25
2023-05-13T04:54:00.850Z,11.00
2023-05-13T04:56:29.147Z,11.50
2023-05-13T04:58:57.359Z,11.00
2023-05-13T05:01:25.601Z,10.25
2023-05-13T05:03:53.613Z,11.50
2023-05-13T05:06:21.923Z,10.00
2023-05-13T05:08:51.786Z,11.50
2023-05-13T05:11:19.723Z,11.00
2023-05-13T05:13:47.665Z,10.75
2023-05-13T05:16:15.536Z,10.75
2023-05-13T05:18:43.862Z,11.75
2023-05-13T05:21:11.858Z,11.50
2023-05-13T05:23:39.761Z,10.50
2023-05-13T05:26:12.019Z,10.50
2023-05-13T05:28:40.429Z,12.00
2023-05-13T05:31:08.430Z,11.00
2023-05-13T05:33:36.440Z,11.00
2023-05-13T05:36:04.574Z,10.75
2023-05-13T05:38:32.922Z,12.00
2023-05-13T05:41:00.956Z,11.00
2023-05-13T05:43:30.636Z,10.50
2023-05-13T05:45:58.631Z,11.00
2023-05-13T05:48:26.596Z,12.00
2023-05-13T05:50:55.519Z,11.00
2023-05-13T05:53:23.666Z,11.00
2023-05-13T05:55:54.272Z,11.50
2023-05-13T05:58:22.264Z,10.25
2023-05-13T06:00:51.612Z,11.75
2023-05-13T06:03:19.654Z,10.00
2023-05-13T06:05:47.686Z,10.50
2023-05-13T06:08:15.822Z,10.00
2023-05-13T06:10:44.028Z,11.00
2023-05-13T06:13:12.162Z,10.75
2023-05-13T06:15:40.112Z,11.50
2023-05-13T06:18:09.804Z,11.75
2023-05-13T06:20:37.776Z,10.75
2023-05-13T06:23:05.636Z,10.75
2023-05-13T06:25:33.541Z,11.00
2023-05-13T06:28:03.019Z,12.00
2023-05-13T06:30:31.195Z,11.50
2023-05-13T06:33:02.208Z,10.25
2023-05-13T06:35:32.374Z,11.50
2023-05-13T06:38:00.550Z,12.00
2023-05-13T06:40:28.481Z,11.00
2023-05-13T06:42:56.384Z,11.50
2023-05-13T06:45:25.915Z,9.50
2023-05-13T06:47:54.196Z,10.25
2023-05-13T06:50:22.434Z,11.00
2023-05-13T06:52:51.956Z,11.00
2023-05-13T06:55:19.966Z,10.50
2023-05-13T06:57:48.222Z,10.25
2023-05-13T07:02:53.907Z,9.25
2023-05-13T07:05:21.893Z,11.00
2023-05-13T07:07:53.646Z,10.50
2023-05-13T07:10:21.962Z,9.50
2023-05-13T07:12:50.138Z,12.00
2023-05-13T07:15:17.997Z,10.25
2023-05-13T07:17:46.089Z,10.00
2023-05-13T07:20:14.351Z,11.00
2023-05-13T07:22:42.244Z,11.75
2023-05-13T07:25:12.530Z,10.50
2023-05-13T07:27:40.490Z,10.00
2023-05-13T07:30:12.511Z,11.00
2023-05-13T07:32:40.573Z,9.75
2023-05-13T07:35:09.413Z,9.50
2023-05-13T07:37:38.140Z,9.50
2023-05-13T07:40:13.237Z,11.00
2023-05-13T07:42:41.297Z,10.50
2023-05-13T07:45:12.757Z,10.00
2023-05-13T07:47:43.035Z,10.00
2023-05-13T07:50:12.721Z,12.00
2023-05-13T07:52:40.627Z,10.25
2023-05-13T07:55:10.779Z,9.50
2023-05-13T07:57:40.154Z,10.25
2023-05-13T08:02:49.169Z,9.00
2023-05-13T08:05:17.195Z,10.00
2023-05-13T08:07:45.105Z,9.75
2023-05-13T08:10:13.275Z,10.00
2023-05-13T08:12:42.600Z,9.50
2023-05-13T08:15:12.029Z,9.50
2023-05-13T08:17:40.333Z,9.25
2023-05-13T08:20:11.270Z,9.50
2023-05-13T08:22:39.230Z,10.25
2023-05-13T08:25:07.534Z,10.75
2023-05-13T08:27:36.265Z,10.25
2023-05-13T08:30:07.898Z,10.00
2023-05-13T08:32:35.882Z,10.25
2023-05-13T08:37:47.622Z,8.75
2023-05-13T08:40:15.940Z,11.00
2023-05-13T08:42:44.341Z,9.50
2023-05-13T08:45:14.961Z,10.25
2023-05-13T08:47:47.126Z,10.00
2023-05-13T08:50:15.142Z,10.75
2023-05-13T08:52:43.034Z,8.75
2023-05-13T08:55:10.958Z,8.75
2023-05-13T08:57:39.478Z,9.25
2023-05-13T09:00:11.009Z,10.50
2023-05-13T09:02:40.369Z,10.00
2023-05-13T09:05:09.529Z,8.50
2023-05-13T09:07:37.986Z,9.50
2023-05-13T09:10:06.442Z,9.50
2023-05-13T09:12:44.627Z,9.50
2023-05-13T09:15:13.856Z,9.75
2023-05-13T09:17:44.124Z,9.00
2023-05-13T09:20:13.105Z,8.25
2023-05-13T09:22:47.100Z,9.25
2023-05-13T09:25:15.303Z,8.50
2023-05-13T09:27:44.040Z,9.50
2023-05-13T09:30:12.537Z,9.75
2023-05-13T09:32:41.094Z,9.00
2023-05-13T09:35:17.280Z,8.75
2023-05-13T09:37:49.084Z,9.25
2023-05-13T09:40:17.597Z,10.00
2023-05-13T09:42:46.029Z,9.50
2023-05-13T09:45:14.792Z,9.00
2023-05-13T09:47:42.790Z,10.00
2023-05-13T09:50:11.232Z,8.75
2023-05-13T09:52:40.746Z,10.25
2023-05-13T09:55:10.592Z,10.75
2023-05-13T09:57:39.132Z,8.50
2023-05-13T10:02:51.039Z,9.75
2023-05-13T10:05:19.125Z,9.00
2023-05-13T10:07:48.412Z,10.00
2023-05-13T10:10:17.428Z,9.50
2023-05-13T10:12:45.324Z,9.25
2023-05-13T10:15:13.326Z,9.50
2023-05-13T10:17:41.287Z,10.50
2023-05-13T10:20:09.398Z,10.75
2023-05-13T10:22:37.331Z,10.25
2023-05-13T10:25:07.482Z,8.75
2023-05-13T10:27:35.482Z,9.25
2023-05-13T10:30:06.887Z,10.00
2023-05-13T10:32:34.863Z,9.50
2023-05-13T10:38:06.268Z,10.00
2023-05-13T10:41:00.521Z,10.00
2023-05-13T10:43:28.755Z,9.50
2023-05-13T10:45:58.328Z,10.75
2023-05-13T10:48:26.421Z,9.00
2023-05-13T10:50:55.401Z,9.50
2023-05-13T10:53:29.053Z,8.50
2023-05-13T10:55:59.302Z,9.75
2023-05-13T10:58:30.542Z,9.50
2023-05-13T11:01:14.305Z,9.25
2023-05-13T11:03:42.446Z,9.75
2023-05-13T11:06:17.410Z,8.75
2023-05-13T11:08:46.614Z,10.00
2023-05-13T11:11:22.520Z,11.00
2023-05-13T11:13:50.931Z,11.25
2023-05-13T11:16:18.916Z,10.00
2023-05-13T11:18:47.003Z,8.50
2023-05-13T11:21:14.930Z,10.25
2023-05-13T11:23:53.172Z,10.50
2023-05-13T11:26:23.026Z,9.00
2023-05-13T11:28:57.869Z,10.00
2023-05-13T11:31:28.655Z,8.75
2023-05-13T11:34:10.477Z,10.00
2023-05-13T11:36:39.465Z,10.75
2023-05-13T11:39:14.358Z,9.25
2023-05-13T11:41:45.356Z,10.00
2023-05-13T11:44:14.797Z,11.25
2023-05-13T11:46:57.232Z,9.50
2023-05-13T11:49:35.284Z,8.25
2023-05-13T11:52:05.182Z,9.00
2023-05-13T11:54:33.063Z,9.25
2023-05-13T11:57:02.680Z,9.00
2023-05-13T11:59:38.561Z,10.00
2023-05-13T12:02:13.516Z,10.00
2023-05-13T12:04:41.606Z,9.50
2023-05-13T12:07:12.611Z,9.25
2023-05-13T12:09:40.794Z,9.00
2023-05-13T12:12:10.401Z,10.50
2023-05-13T12:14:38.308Z,10.50
2023-05-13T12:17:06.461Z,9.00
2023-05-13T12:19:34.342Z,9.00
2023-05-13T12:22:03.453Z,9.50
2023-05-13T12:24:34.270Z,9.50
2023-05-13T12:27:06.207Z,9.50
2023-05-13T12:29:43.258Z,10.25
2023-05-13T12:32:11.889Z,9.75
2023-05-13T12:34:40.072Z,8.50
2023-05-13T12:37:12.418Z,9.50
2023-05-13T12:39:41.451Z,9.50
2023-05-13T12:42:15.195Z,10.50
2023-05-13T12:44:45.108Z,10.25
2023-05-13T12:47:14.314Z,9.50
2023-05-13T12:49:54.794Z,10.50
2023-05-13T12:52:22.758Z,10.50
2023-05-13T12:54:50.823Z,9.50
2023-05-13T12:57:18.945Z,10.50
2023-05-13T12:59:48.208Z,9.25
2023-05-13T13:02:16.115Z,9.25
2023-05-13T13:04:44.016Z,9.50
2023-05-13T13:07:14.484Z,10.50
2023-05-13T13:09:42.725Z,9.75
2023-05-13T13:12:10.652Z,9.25
2023-05-13T13:14:38.575Z,9.50
2023-05-13T13:17:08.359Z,8.50
2023-05-13T13:19:36.469Z,8.50
2023-05-13T13:22:04.432Z,9.00
2023-05-13T13:24:32.534Z,9.50
2023-05-13T13:27:00.521Z,8.00
2023-05-13T13:29:28.717Z,8.50
2023-05-13T13:31:56.623Z,8.75
2023-05-13T13:34:25.999Z,9.00
2023-05-13T13:36:53.946Z,8.75
2023-05-13T13:39:22.305Z,9.50
2023-05-13T13:41:50.290Z,9.50
2023-05-13T13:44:18.320Z,9.25
2023-05-13T13:46:46.301Z,9.00
2023-05-13T13:49:23.220Z,9.25
2023-05-13T13:51:53.111Z,8.75
2023-05-13T13:54:21.168Z,8.00
2023-05-13T13:56:49.282Z,9.00
2023-05-13T13:59:19.240Z,8.00
2023-05-13T14:01:47.344Z,8.25
2023-05-13T14:04:16.048Z,8.50
2023-05-13T14:06:44.015Z,7.50
2023-05-13T14:09:13.659Z,8.50
2023-05-13T14:11:41.592Z,9.00
2023-05-13T14:14:09.470Z,9.25
2023-05-13T14:16:37.536Z,7.50
2023-05-13T14:19:05.441Z,7.50
2023-05-13T14:21:33.517Z,7.50
2023-05-13T14:24:01.428Z,8.50
2023-05-13T14:26:30.728Z,8.50
2023-05-13T14:28:58.946Z,8.00
2023-05-13T14:31:27.048Z,8.50
2023-05-13T14:33:54.977Z,8.25
2023-05-13T14:36:24.267Z,8.50
2023-05-13T14:38:52.165Z,9.50
2023-05-13T14:41:22.603Z,7.50
2023-05-13T14:43:52.141Z,8.50
2023-05-13T14:46:20.074Z,8.25
2023-05-13T14:48:48.475Z,7.75
2023-05-13T14:51:16.488Z,7.50
2023-05-13T14:53:44.677Z,8.00
2023-05-13T14:56:12.576Z,9.25
2023-05-13T14:58:40.671Z,7.50
2023-05-13T15:01:10.429Z,8.25
2023-05-13T15:03:38.664Z,7.00
2023-05-13T15:06:07.431Z,7.50
2023-05-13T15:08:35.663Z,8.50
2023-05-13T15:11:03.575Z,7.25
2023-05-13T15:13:35.204Z,7.50
2023-05-13T15:16:03.520Z,7.50
2023-05-13T15:18:32.899Z,7.50
2023-05-13T15:21:01.332Z,8.25
2023-05-13T15:23:29.387Z,7.75
2023-05-13T15:25:57.286Z,7.50
2023-05-13T15:28:25.225Z,7.50
2023-05-13T15:30:53.163Z,6.50
2023-05-13T15:33:21.481Z,6.25
2023-05-13T15:35:51.012Z,6.00
2023-05-13T15:38:18.977Z,7.50
2023-05-13T15:40:47.358Z,6.50
2023-05-13T15:43:15.340Z,7.50
2023-05-13T15:45:43.378Z,7.50
2023-05-13T15:48:11.419Z,7.75
2023-05-13T15:50:39.392Z,7.25
2023-05-13T15:53:08.953Z,7.25
2023-05-13T15:55:37.487Z,7.50
2023-05-13T15:58:05.390Z,7.00
2023-05-13T16:00:33.313Z,7.50
2023-05-13T16:03:01.441Z,7.25
2023-05-13T16:05:29.496Z,8.25
2023-05-13T16:07:57.562Z,7.50
2023-05-13T16:10:27.150Z,6.50
2023-05-13T16:12:55.112Z,7.25
2023-05-13T16:15:23.115Z,7.75
2023-05-13T16:17:51.410Z,7.00
2023-05-13T16:20:19.649Z,7.25
2023-05-13T16:22:47.658Z,8.00
2023-05-13T16:25:15.564Z,7.00
2023-05-13T16:27:44.856Z,6.50
2023-05-13T16:30:12.914Z,7.25
2023-05-13T16:32:40.892Z,7.75
2023-05-13T16:35:11.651Z,7.50
2023-05-13T16:37:39.599Z,7.75
2023-05-13T16:40:09.034Z,8.50
2023-05-13T16:42:37.159Z,8.00
2023-05-13T16:45:09.894Z,7.25
2023-05-13T16:47:37.846Z,7.75
2023-05-13T16:50:08.499Z,8.25
2023-05-13T16:52:36.488Z,8.50
2023-05-13T16:55:04.455Z,8.75
2023-05-13T16:57:32.693Z,7.50
2023-05-13T17:00:00.839Z,7.75
2023-05-13T17:02:30.265Z,7.75
2023-05-13T17:04:58.246Z,7.50
2023-05-13T17:07:26.181Z,7.50
2023-05-13T17:09:54.534Z,7.50
2023-05-13T17:12:22.489Z,8.00
2023-05-13T17:14:50.354Z,8.50
2023-05-13T17:17:18.620Z,8.50
2023-05-13T17:19:47.909Z,8.50
2023-05-13T17:22:15.806Z,8.25
2023-05-13T17:24:43.693Z,8.00
2023-05-13T17:27:11.589Z,8.00
2023-05-13T17:29:39.823Z,10.25
2023-05-13T17:32:08.357Z,9.00
2023-05-13T17:34:36.317Z,8.00
2023-05-13T17:37:06.193Z,7.50
2023-05-13T17:39:34.133Z,7.50
2023-05-13T17:42:02.119Z,8.00
2023-05-13T17:44:30.031Z,7.25
2023-05-13T17:46:58.077Z,8.25
2023-05-13T17:49:26.083Z,7.75
2023-05-13T17:51:54.003Z,7.50
2023-05-13T17:54:23.364Z,8.00
2023-05-13T17:56:51.563Z,7.25
2023-05-13T17:59:19.804Z,8.25
2023-05-13T18:01:47.741Z,8.00
2023-05-13T18:04:16.104Z,7.50
2023-05-13T18:06:43.989Z,7.50
2023-05-13T18:09:12.010Z,8.25
2023-05-13T18:11:41.324Z,7.25
2023-05-13T18:14:09.206Z,7.50
2023-05-13T18:16:37.287Z,7.50
2023-05-13T18:19:06.752Z,6.00
2023-05-13T18:21:34.718Z,8.00
2023-05-13T18:24:02.655Z,8.25
2023-05-13T18:26:30.661Z,7.50
2023-05-13T18:29:00.226Z,7.50
2023-05-13T18:31:28.221Z,7.50
2023-05-13T18:33:56.124Z,8.00
2023-05-13T18:36:24.137Z,8.00
2023-05-13T18:38:52.062Z,8.25
2023-05-13T18:41:19.957Z,8.50
2023-05-13T18:43:48.149Z,6.50
2023-05-13T18:46:17.550Z,7.75
2023-05-13T18:48:46.410Z,7.50
2023-05-13T18:51:14.435Z,7.50
2023-05-13T18:53:42.632Z,8.25
2023-05-13T18:56:10.594Z,7.75
2023-05-13T18:58:38.492Z,8.25
2023-05-13T19:01:06.600Z,7.50
2023-05-13T19:03:36.481Z,7.50
2023-05-13T19:06:04.625Z,8.50
2023-05-13T19:08:32.607Z,7.25
2023-05-13T19:11:00.572Z,8.50
2023-05-13T19:13:39.486Z,7.50
2023-05-13T19:16:14.590Z,7.75
2023-05-13T19:18:44.018Z,8.25
2023-05-13T19:21:11.965Z,7.50
2023-05-13T19:23:40.201Z,7.75
2023-05-13T19:26:08.148Z,7.75
2023-05-13T19:28:36.426Z,8.25
2023-05-13T19:31:05.964Z,8.50
2023-05-13T19:33:33.928Z,7.50
2023-05-13T19:36:03.340Z,7.50
2023-05-13T19:38:31.277Z,8.50
2023-05-13T19:40:59.165Z,7.25
2023-05-13T19:43:27.064Z,8.50
2023-05-13T19:45:56.431Z,8.00
2023-05-13T19:48:24.341Z,7.50
2023-05-13T19:50:53.521Z,8.50
2023-05-13T19:53:23.120Z,8.50
2023-05-13T19:55:51.070Z,9.50
2023-05-13T19:58:19.007Z,8.00
2023-05-13T20:00:46.892Z,6.75
2023-05-13T20:03:15.170Z,7.50
2023-05-13T20:05:43.254Z,7.00
2023-05-13T20:08:11.168Z,8.50
2023-05-13T20:10:40.630Z,7.75
2023-05-13T20:13:08.840Z,8.00
2023-05-13T20:15:36.878Z,8.50
2023-05-13T20:18:04.915Z,8.25
2023-05-13T20:20:32.856Z,9.50
2023-05-13T20:23:01.300Z,8.50
2023-05-13T20:25:29.195Z,8.50
2023-05-13T20:27:58.527Z,9.25
2023-05-13T20:30:26.504Z,7.25
2023-05-13T20:32:54.591Z,8.00
2023-05-13T20:35:27.634Z,8.50
2023-05-13T20:37:57.267Z,8.50
2023-05-13T20:40:25.300Z,6.75
2023-05-13T20:42:53.427Z,8.75
2023-05-13T20:45:22.807Z,7.50
2023-05-13T20:47:52.549Z,7.25
2023-05-13T20:50:20.806Z,8.00
2023-05-13T20:52:48.908Z,8.75
2023-05-13T20:55:17.199Z,9.00
2023-05-13T20:57:45.174Z,8.75
2023-05-13T21:00:14.411Z,8.50
2023-05-13T21:02:43.720Z,9.25
2023-05-13T21:05:12.204Z,8.50
2023-05-13T21:07:40.195Z,8.75
2023-05-13T21:10:09.197Z,9.00
2023-05-13T21:12:37.431Z,8.75
2023-05-13T21:15:08.218Z,8.75
2023-05-13T21:17:36.207Z,8.25
2023-05-13T21:20:06.616Z,9.50
2023-05-13T21:22:34.515Z,9.00
2023-05-13T21:25:02.791Z,10.25
2023-05-13T21:27:30.759Z,7.75
2023-05-13T21:29:58.638Z,8.25
2023-05-13T21:32:26.606Z,9.50
2023-05-13T21:34:56.131Z,8.00
2023-05-13T21:37:26.574Z,10.25
2023-05-13T21:39:54.512Z,9.25
2023-05-13T21:42:23.023Z,8.75
2023-05-13T21:44:51.000Z,9.50
2023-05-13T21:47:18.985Z,9.00
2023-05-13T21:49:46.943Z,9.25
2023-05-13T21:52:14.822Z,9.25
2023-05-13T21:54:44.375Z,7.75
2023-05-13T21:57:12.327Z,9.50
2023-05-13T21:59:40.198Z,8.50
2023-05-13T22:02:09.371Z,8.50
2023-05-13T22:04:37.416Z,10.25
2023-05-13T22:07:05.483Z,8.75
2023-05-13T22:09:33.419Z,8.75
2023-05-13T22:12:02.945Z,8.50
2023-05-13T22:14:30.928Z,9.50
2023-05-13T22:17:08.976Z,10.25
2023-05-13T22:19:38.223Z,9.75
2023-05-13T22:22:06.448Z,9.50
2023-05-13T22:24:34.336Z,10.50
2023-05-13T22:27:03.681Z,8.00
2023-05-13T22:29:31.848Z,10.75
2023-05-13T22:31:59.807Z,8.75
2023-05-13T22:34:27.790Z,10.50
2023-05-13T22:36:55.720Z,10.25
2023-05-13T22:39:23.878Z,9.75
2023-05-13T22:41:51.784Z,9.75
2023-05-13T22:44:22.703Z,9.50
2023-05-13T22:46:52.181Z,10.75
2023-05-13T22:49:20.098Z,10.00
2023-05-13T22:51:48.286Z,9.50
2023-05-13T22:54:16.249Z,10.00
2023-05-13T22:56:44.156Z,10.75
2023-05-13T22:59:12.454Z,9.50
2023-05-13T23:01:41.831Z,10.25
2023-05-13T23:04:10.077Z,10.25
2023-05-13T23:06:38.113Z,9.50
2023-05-13T23:09:07.586Z,9.75
2023-05-13T23:11:36.603Z,11.00
2023-05-13T23:14:04.496Z,10.00
2023-05-13T23:16:32.481Z,10.50
2023-05-13T23:19:02.118Z,9.00
2023-05-13T23:21:30.079Z,10.00
2023-05-13T23:23:58.309Z,10.00
2023-05-13T23:26:26.236Z,10.75
2023-05-13T23:28:54.423Z,10.50
2023-05-13T23:31:22.378Z,9.75
2023-05-13T23:33:50.294Z,9.50
2023-05-13T23:36:19.559Z,9.50
2023-05-13T23:38:47.482Z,10.75
2023-05-13T23:41:15.378Z,9.75
2023-05-13T23:43:43.335Z,10.50
2023-05-13T23:46:11.345Z,11.00
2023-05-13T23:48:40.250Z,11.50
2023-05-13T23:51:08.206Z,13.50
2023-05-13T23:53:37.567Z,14.50
2023-05-13T23:56:06.149Z,15.50
2023-05-13T23:58:34.317Z,15.50
